Ryouseimaru — 7JFF — position and weather

sailwx.info

Track history (hours):
 
Tides and Currents Weather Stations Pressure Air Temp Water Temp Dewpoint Dewpoint Depression Visibility Wind Speed Wind Dir Waves Ship Positions

Ryouseimaru

Last reported at 2017-Aug-29 07:53 UTC. Time now 2017-Sep-24 19:13 UTC.
Position N 34°37' E 134°59'.
Warning: this ship's position is 26 days out of date.

Length 72 m; draft 4.5 m.

Type: Tanker. MMSI: 432702000.

Date/timePositionNaut miles runAvg speedWind from/ knotsBaromVisibWave heightAir tempDewpointWater temp
2017-Aug-29 07:53N 34°37' E 134°59'512.3
2017-Aug-29 07:30N 34°36' E 135°04'612.0
2017-Aug-29 07:01N 34°34' E 135°11'712.2
2017-Aug-29 06:26N 34°33' E 135°19'511.0
2017-Aug-29 06:00N 34°31' E 135°25'0 0.2
2017-Aug-29 05:25N 34°32' E 135°25'0 0.0
2017-Aug-29 04:59N 34°32' E 135°25'0 0.0
2017-Aug-29 01:04N 34°32' E 135°25'0 1.8
2017-Aug-29 01:00N 34°31' E 135°25'5 9.7
2017-Aug-29 00:30N 34°31' E 135°19'613.2
2017-Aug-29 00:00N 34°27' E 135°12'1312.4
2017-Aug-28 22:55N 34°16' E 135°03'512.8
2017-Aug-28 22:30N 34°11' E 135°03'  
2017-Aug-21 05:39N 34°08' E 134°59'212.2
2017-Aug-21 05:30N 34°10' E 134°59'914.0
2017-Aug-21 04:50N 34°19' E 134°59'412.3
2017-Aug-21 04:30N 34°23' E 135°01'612.8
2017-Aug-21 04:00N 34°28' E 135°06'712.9
2017-Aug-21 03:29N 34°33' E 135°11'612.0
2017-Aug-21 03:00N 34°37' E 135°16'5 9.5
2017-Aug-21 02:30N 34°42' E 135°15'0 0.0
2017-Aug-21 02:00N 34°42' E 135°15'0 0.0
2017-Aug-21 01:30N 34°42' E 135°15'0 0.0
2017-Aug-21 01:00N 34°42' E 135°15'0 0.0
2017-Aug-21 00:30N 34°42' E 135°15'0 0.0
2017-Aug-20 23:59N 34°42' E 135°15'0 0.0
2017-Aug-20 23:30N 34°42' E 135°15'0 0.0
2017-Aug-20 23:00N 34°42' E 135°15'3 7.0
2017-Aug-20 22:30N 34°39' E 135°16'2 3.5
2017-Aug-20 22:00N 34°37' E 135°15'4 8.3
2017-Aug-20 21:30N 34°41' E 135°12'0 0.4
2017-Aug-20 21:00N 34°41' E 135°12'0 0.0
2017-Aug-20 20:30N 34°41' E 135°12'0 0.0
2017-Aug-20 20:00N 34°41' E 135°12'0 0.0
2017-Aug-20 19:30N 34°41' E 135°12'0 0.0
2017-Aug-20 19:00N 34°41' E 135°12'0 0.0
2017-Aug-20 18:30N 34°41' E 135°12'0 0.0
2017-Aug-20 18:00N 34°41' E 135°12'0 0.0
2017-Aug-20 17:30N 34°41' E 135°12'0 0.0
2017-Aug-20 16:59N 34°41' E 135°12'0 0.0
2017-Aug-20 16:30N 34°41' E 135°12'0 0.0
2017-Aug-20 16:00N 34°41' E 135°12'0 0.0
2017-Aug-20 15:30N 34°41' E 135°12'0 0.0
2017-Aug-20 15:00N 34°41' E 135°12'0 0.0
2017-Aug-20 14:30N 34°41' E 135°12'0 0.0
2017-Aug-20 14:00N 34°41' E 135°12'0 0.0
2017-Aug-20 13:30N 34°41' E 135°12'0 0.0
2017-Aug-20 13:00N 34°41' E 135°12'0 0.0
2017-Aug-20 12:30N 34°41' E 135°12'0 0.0
2017-Aug-20 12:00N 34°41' E 135°12'0 0.0
2017-Aug-20 11:30N 34°41' E 135°12'0 0.0
2017-Aug-20 11:00N 34°41' E 135°12'0 0.0
2017-Aug-20 10:30N 34°41' E 135°12'0 0.0
2017-Aug-20 10:00N 34°41' E 135°12'0 0.0
2017-Aug-20 09:30N 34°41' E 135°12'0 0.0
2017-Aug-20 09:00N 34°41' E 135°12'0 0.0
2017-Aug-20 08:30N 34°41' E 135°12'0 0.0
2017-Aug-20 08:00N 34°41' E 135°12'0 0.0
2017-Aug-20 07:30N 34°41' E 135°12'0 0.0
2017-Aug-20 07:00N 34°41' E 135°12'0 0.0
2017-Aug-20 06:30N 34°41' E 135°12'0 0.0
2017-Aug-20 06:00N 34°41' E 135°12'0 0.0
2017-Aug-20 05:30N 34°41' E 135°12'0 0.0
2017-Aug-20 05:00N 34°41' E 135°12'0 0.0
2017-Aug-20 04:30N 34°41' E 135°12'0 0.0
2017-Aug-20 04:00N 34°41' E 135°12'0 0.0
2017-Aug-20 03:30N 34°41' E 135°12'0 0.0
2017-Aug-20 03:00N 34°41' E 135°12'0 0.0
2017-Aug-20 02:30N 34°41' E 135°12'0 0.0
2017-Aug-20 02:00N 34°41' E 135°12'0 0.0
2017-Aug-20 01:30N 34°41' E 135°12'0 0.0
2017-Aug-20 01:00N 34°41' E 135°12'0 0.0
2017-Aug-20 00:30N 34°41' E 135°12'0 0.0
2017-Aug-20 00:00N 34°41' E 135°12'0 0.0
2017-Aug-19 23:30N 34°41' E 135°12'0 0.3
2017-Aug-19 23:00N 34°41' E 135°12'2 4.8
2017-Aug-19 22:30N 34°38' E 135°11'612.4
2017-Aug-19 22:00N 34°32' E 135°08'1912.8
2017-Aug-19 20:30N 34°14' E 134°60'  
Track history (hours):
 
Tides and Currents Weather Stations Pressure Air Temp Water Temp Dewpoint Dewpoint Depression Visibility Wind Speed Wind Dir Waves Ship Positions

Ryouseimaru

Last reported at 2017-Aug-29 07:53 UTC. Time now 2017-Sep-24 19:13 UTC.
Position N 34°37' E 134°59'.
Warning: this ship's position is 26 days out of date.

Length 72 m; draft 4.5 m.

Type: Tanker. MMSI: 432702000.

Date/timePositionNaut miles runAvg speedWind from/ knotsBaromVisibWave heightAir tempDewpointWater temp
2017-Aug-29 07:53N 34°37' E 134°59'512.3
2017-Aug-29 07:30N 34°36' E 135°04'612.0
2017-Aug-29 07:01N 34°34' E 135°11'712.2
2017-Aug-29 06:26N 34°33' E 135°19'511.0
2017-Aug-29 06:00N 34°31' E 135°25'0 0.2
2017-Aug-29 05:25N 34°32' E 135°25'0 0.0
2017-Aug-29 04:59N 34°32' E 135°25'0 0.0
2017-Aug-29 01:04N 34°32' E 135°25'0 1.8
2017-Aug-29 01:00N 34°31' E 135°25'5 9.7
2017-Aug-29 00:30N 34°31' E 135°19'613.2
2017-Aug-29 00:00N 34°27' E 135°12'1312.4
2017-Aug-28 22:55N 34°16' E 135°03'512.8
2017-Aug-28 22:30N 34°11' E 135°03'  
2017-Aug-21 05:39N 34°08' E 134°59'212.2
2017-Aug-21 05:30N 34°10' E 134°59'914.0
2017-Aug-21 04:50N 34°19' E 134°59'412.3
2017-Aug-21 04:30N 34°23' E 135°01'612.8
2017-Aug-21 04:00N 34°28' E 135°06'712.9
2017-Aug-21 03:29N 34°33' E 135°11'612.0
2017-Aug-21 03:00N 34°37' E 135°16'5 9.5
2017-Aug-21 02:30N 34°42' E 135°15'0 0.0
2017-Aug-21 02:00N 34°42' E 135°15'0 0.0
2017-Aug-21 01:30N 34°42' E 135°15'0 0.0
2017-Aug-21 01:00N 34°42' E 135°15'0 0.0
2017-Aug-21 00:30N 34°42' E 135°15'0 0.0
2017-Aug-20 23:59N 34°42' E 135°15'0 0.0
2017-Aug-20 23:30N 34°42' E 135°15'0 0.0
2017-Aug-20 23:00N 34°42' E 135°15'3 7.0
2017-Aug-20 22:30N 34°39' E 135°16'2 3.5
2017-Aug-20 22:00N 34°37' E 135°15'4 8.3
2017-Aug-20 21:30N 34°41' E 135°12'0 0.4
2017-Aug-20 21:00N 34°41' E 135°12'0 0.0
2017-Aug-20 20:30N 34°41' E 135°12'0 0.0
2017-Aug-20 20:00N 34°41' E 135°12'0 0.0
2017-Aug-20 19:30N 34°41' E 135°12'0 0.0
2017-Aug-20 19:00N 34°41' E 135°12'0 0.0
2017-Aug-20 18:30N 34°41' E 135°12'0 0.0
2017-Aug-20 18:00N 34°41' E 135°12'0 0.0
2017-Aug-20 17:30N 34°41' E 135°12'0 0.0
2017-Aug-20 16:59N 34°41' E 135°12'0 0.0
2017-Aug-20 16:30N 34°41' E 135°12'0 0.0
2017-Aug-20 16:00N 34°41' E 135°12'0 0.0
2017-Aug-20 15:30N 34°41' E 135°12'0 0.0
2017-Aug-20 15:00N 34°41' E 135°12'0 0.0
2017-Aug-20 14:30N 34°41' E 135°12'0 0.0
2017-Aug-20 14:00N 34°41' E 135°12'0 0.0
2017-Aug-20 13:30N 34°41' E 135°12'0 0.0
2017-Aug-20 13:00N 34°41' E 135°12'0 0.0
2017-Aug-20 12:30N 34°41' E 135°12'0 0.0
2017-Aug-20 12:00N 34°41' E 135°12'0 0.0
2017-Aug-20 11:30N 34°41' E 135°12'0 0.0
2017-Aug-20 11:00N 34°41' E 135°12'0 0.0
2017-Aug-20 10:30N 34°41' E 135°12'0 0.0
2017-Aug-20 10:00N 34°41' E 135°12'0 0.0
2017-Aug-20 09:30N 34°41' E 135°12'0 0.0
2017-Aug-20 09:00N 34°41' E 135°12'0 0.0
2017-Aug-20 08:30N 34°41' E 135°12'0 0.0
2017-Aug-20 08:00N 34°41' E 135°12'0 0.0
2017-Aug-20 07:30N 34°41' E 135°12'0 0.0
2017-Aug-20 07:00N 34°41' E 135°12'0 0.0
2017-Aug-20 06:30N 34°41' E 135°12'0 0.0
2017-Aug-20 06:00N 34°41' E 135°12'0 0.0
2017-Aug-20 05:30N 34°41' E 135°12'0 0.0
2017-Aug-20 05:00N 34°41' E 135°12'0 0.0
2017-Aug-20 04:30N 34°41' E 135°12'0 0.0
2017-Aug-20 04:00N 34°41' E 135°12'0 0.0
2017-Aug-20 03:30N 34°41' E 135°12'0 0.0
2017-Aug-20 03:00N 34°41' E 135°12'0 0.0
2017-Aug-20 02:30N 34°41' E 135°12'0 0.0
2017-Aug-20 02:00N 34°41' E 135°12'0 0.0
2017-Aug-20 01:30N 34°41' E 135°12'0 0.0
2017-Aug-20 01:00N 34°41' E 135°12'0 0.0
2017-Aug-20 00:30N 34°41' E 135°12'0 0.0
2017-Aug-20 00:00N 34°41' E 135°12'0 0.0
2017-Aug-19 23:30N 34°41' E 135°12'0 0.3
2017-Aug-19 23:00N 34°41' E 135°12'2 4.8
2017-Aug-19 22:30N 34°38' E 135°11'612.4
2017-Aug-19 22:00N 34°32' E 135°08'1912.8
2017-Aug-19 20:30N 34°14' E 134°60'  

Dump ship's entire track history